sensor_id;sensor_type;location;lat;lon;timestamp;temperature;humidity
72883;DHT22;61017;37.812;-122.286;2023-01-24T00:01:05;15.30;52.70
72883;DHT22;61017;37.812;-122.286;2023-01-24T00:02:37;15.50;51.80
72883;DHT22;61017;37.812;-122.286;2023-01-24T00:04:09;15.60;52.10
72883;DHT22;61017;37.812;-122.286;2023-01-24T00:05:41;15.50;53.00
72883;DHT22;61017;37.812;-122.286;2023-01-24T00:07:13;15.60;51.60
72883;DHT22;61017;37.812;-122.286;2023-01-24T00:08:45;15.80;50.90
72883;DHT22;61017;37.812;-122.286;2023-01-24T00:10:16;15.90;50.20
72883;DHT22;61017;37.812;-122.286;2023-01-24T00:11:48;16.00;49.50
72883;DHT22;61017;37.812;-122.286;2023-01-24T00:13:20;16.00;49.00
72883;DHT22;61017;37.812;-122.286;2023-01-24T00:14:51;16.10;48.70
72883;DHT22;61017;37.812;-122.286;2023-01-24T00:16:23;16.00;49.00
72883;DHT22;61017;37.812;-122.286;2023-01-24T00:17:54;16.00;50.10
72883;DHT22;61017;37.812;-122.286;2023-01-24T00:19:26;16.00;49.30
72883;DHT22;61017;37.812;-122.286;2023-01-24T00:21:02;16.10;48.70
72883;DHT22;61017;37.812;-122.286;2023-01-24T00:22:34;16.20;48.20
72883;DHT22;61017;37.812;-122.286;2023-01-24T00:24:05;16.30;47.80
72883;DHT22;61017;37.812;-122.286;2023-01-24T00:25:37;16.30;48.10
72883;DHT22;61017;37.812;-122.286;2023-01-24T00:27:09;16.30;47.30
72883;DHT22;61017;37.812;-122.286;2023-01-24T00:28:40;16.20;48.80
72883;DHT22;61017;37.812;-122.286;2023-01-24T00:30:12;16.20;48.60
72883;DHT22;61017;37.812;-122.286;2023-01-24T00:31:44;16.20;48.00
72883;DHT22;61017;37.812;-122.286;2023-01-24T00:33:15;16.30;47.60
72883;DHT22;61017;37.812;-122.286;2023-01-24T00:34:47;16.30;47.20
72883;DHT22;61017;37.812;-122.286;2023-01-24T00:36:18;16.40;47.00
72883;DHT22;61017;37.812;-122.286;2023-01-24T00:37:50;16.40;46.70
72883;DHT22;61017;37.812;-122.286;2023-01-24T00:39:21;16.40;46.90
72883;DHT22;61017;37.812;-122.286;2023-01-24T00:40:53;16.20;48.70
72883;DHT22;61017;37.812;-122.286;2023-01-24T00:42:25;16.30;48.20
72883;DHT22;61017;37.812;-122.286;2023-01-24T00:43:56;16.30;47.60
72883;DHT22;61017;37.812;-122.286;2023-01-24T00:45:28;16.40;47.30
72883;DHT22;61017;37.812;-122.286;2023-01-24T00:46:59;16.40;47.00
72883;DHT22;61017;37.812;-122.286;2023-01-24T00:48:31;16.50;46.70
72883;DHT22;61017;37.812;-122.286;2023-01-24T00:50:02;16.50;46.40
72883;DHT22;61017;37.812;-122.286;2023-01-24T00:51:34;16.40;46.60
72883;DHT22;61017;37.812;-122.286;2023-01-24T00:53:06;16.40;48.60
72883;DHT22;61017;37.812;-122.286;2023-01-24T00:54:38;16.40;47.70
72883;DHT22;61017;37.812;-122.286;2023-01-24T00:56:09;16.40;47.30
72883;DHT22;61017;37.812;-122.286;2023-01-24T00:57:41;16.50;47.10
72883;DHT22;61017;37.812;-122.286;2023-01-24T00:59:12;16.50;46.70
72883;DHT22;61017;37.812;-122.286;2023-01-24T01:00:44;16.60;46.40
72883;DHT22;61017;37.812;-122.286;2023-01-24T01:02:16;16.60;46.30
72883;DHT22;61017;37.812;-122.286;2023-01-24T01:03:47;16.50;46.90
72883;DHT22;61017;37.812;-122.286;2023-01-24T01:05:19;16.40;48.40
72883;DHT22;61017;37.812;-122.286;2023-01-24T01:06:50;16.40;47.60
72883;DHT22;61017;37.812;-122.286;2023-01-24T01:08:22;16.50;47.20
72883;DHT22;61017;37.812;-122.286;2023-01-24T01:09:53;16.50;46.90
72883;DHT22;61017;37.812;-122.286;2023-01-24T01:11:25;16.60;46.60
72883;DHT22;61017;37.812;-122.286;2023-01-24T01:12:57;16.70;46.40
72883;DHT22;61017;37.812;-122.286;2023-01-24T01:14:28;16.60;46.40
72883;DHT22;61017;37.812;-122.286;2023-01-24T01:16:11;16.50;46.90
72883;DHT22;61017;37.812;-122.286;2023-01-24T01:17:42;16.50;48.00
72883;DHT22;61017;37.812;-122.286;2023-01-24T01:19:14;16.50;47.40
72883;DHT22;61017;37.812;-122.286;2023-01-24T01:20:51;16.60;47.10
72883;DHT22;61017;37.812;-122.286;2023-01-24T01:22:23;16.60;46.70
72883;DHT22;61017;37.812;-122.286;2023-01-24T01:23:54;16.70;46.50
72883;DHT22;61017;37.812;-122.286;2023-01-24T01:25:26;16.70;46.30
72883;DHT22;61017;37.812;-122.286;2023-01-24T01:26:59;16.70;46.60
72883;DHT22;61017;37.812;-122.286;2023-01-24T01:28:31;16.50;48.30
72883;DHT22;61017;37.812;-122.286;2023-01-24T01:30:03;16.50;47.70
72883;DHT22;61017;37.812;-122.286;2023-01-24T01:31:37;16.60;47.30
72883;DHT22;61017;37.812;-122.286;2023-01-24T01:33:09;16.60;46.90
72883;DHT22;61017;37.812;-122.286;2023-01-24T01:34:40;16.70;46.60
72883;DHT22;61017;37.812;-122.286;2023-01-24T01:36:12;16.70;46.40
72883;DHT22;61017;37.812;-122.286;2023-01-24T01:37:44;16.70;46.10
72883;DHT22;61017;37.812;-122.286;2023-01-24T01:39:15;16.70;46.60
72883;DHT22;61017;37.812;-122.286;2023-01-24T01:40:48;16.60;48.40
72883;DHT22;61017;37.812;-122.286;2023-01-24T01:42:20;16.60;47.50
72883;DHT22;61017;37.812;-122.286;2023-01-24T01:43:51;16.70;47.20
72883;DHT22;61017;37.812;-122.286;2023-01-24T01:45:44;16.70;46.90
72883;DHT22;61017;37.812;-122.286;2023-01-24T01:47:25;16.80;46.50
72883;DHT22;61017;37.812;-122.286;2023-01-24T01:49:01;16.80;46.30
72883;DHT22;61017;37.812;-122.286;2023-01-24T01:50:38;16.80;47.10
72883;DHT22;61017;37.812;-122.286;2023-01-24T01:52:11;16.60;48.20
72883;DHT22;61017;37.812;-122.286;2023-01-24T01:53:55;16.60;47.80
72883;DHT22;61017;37.812;-122.286;2023-01-24T01:55:33;16.70;47.30
72883;DHT22;61017;37.812;-122.286;2023-01-24T01:57:19;16.70;46.90
72883;DHT22;61017;37.812;-122.286;2023-01-24T01:58:52;16.80;46.60
72883;DHT22;61017;37.812;-122.286;2023-01-24T02:00:25;16.80;46.30
72883;DHT22;61017;37.812;-122.286;2023-01-24T02:01:58;16.90;46.30
72883;DHT22;61017;37.812;-122.286;2023-01-24T02:03:39;16.70;46.90
72883;DHT22;61017;37.812;-122.286;2023-01-24T02:05:16;16.70;48.10
72883;DHT22;61017;37.812;-122.286;2023-01-24T02:08:51;16.80;47.10
72883;DHT22;61017;37.812;-122.286;2023-01-24T02:10:25;16.80;46.70
72883;DHT22;61017;37.812;-122.286;2023-01-24T02:12:01;16.90;46.50
72883;DHT22;61017;37.812;-122.286;2023-01-24T02:13:35;16.90;46.40
72883;DHT22;61017;37.812;-122.286;2023-01-24T02:15:19;16.80;46.80
72883;DHT22;61017;37.812;-122.286;2023-01-24T02:16:51;16.70;48.40
72883;DHT22;61017;37.812;-122.286;2023-01-24T02:18:23;16.70;47.50
72883;DHT22;61017;37.812;-122.286;2023-01-24T02:21:29;16.80;46.90
72883;DHT22;61017;37.812;-122.286;2023-01-24T02:23:19;16.90;46.60
72883;DHT22;61017;37.812;-122.286;2023-01-24T02:25:03;16.90;46.40
72883;DHT22;61017;37.812;-122.286;2023-01-24T02:26:35;16.90;46.90
72883;DHT22;61017;37.812;-122.286;2023-01-24T02:28:08;16.70;48.50
72883;DHT22;61017;37.812;-122.286;2023-01-24T02:29:40;16.80;47.90
72883;DHT22;61017;37.812;-122.286;2023-01-24T02:31:11;16.80;47.30
72883;DHT22;61017;37.812;-122.286;2023-01-24T02:32:43;16.90;47.10
72883;DHT22;61017;37.812;-122.286;2023-01-24T02:34:14;16.90;46.70
72883;DHT22;61017;37.812;-122.286;2023-01-24T02:35:47;17.00;46.60
72883;DHT22;61017;37.812;-122.286;2023-01-24T02:37:19;17.00;46.40
72883;DHT22;61017;37.812;-122.286;2023-01-24T02:39:03;16.90;47.00
72883;DHT22;61017;37.812;-122.286;2023-01-24T02:40:35;16.80;48.40
72883;DHT22;61017;37.812;-122.286;2023-01-24T02:42:13;16.80;47.60
72883;DHT22;61017;37.812;-122.286;2023-01-24T02:43:48;16.90;47.20
72883;DHT22;61017;37.812;-122.286;2023-01-24T02:45:24;16.90;46.90
72883;DHT22;61017;37.812;-122.286;2023-01-24T02:46:58;17.00;46.60
72883;DHT22;61017;37.812;-122.286;2023-01-24T02:48:29;17.00;46.40
72883;DHT22;61017;37.812;-122.286;2023-01-24T02:50:02;16.90;47.30
72883;DHT22;61017;37.812;-122.286;2023-01-24T02:51:34;16.80;49.30
72883;DHT22;61017;37.812;-122.286;2023-01-24T02:53:06;16.80;47.90
72883;DHT22;61017;37.812;-122.286;2023-01-24T02:54:38;16.70;48.40
72883;DHT22;61017;37.812;-122.286;2023-01-24T02:56:11;16.60;49.30
72883;DHT22;61017;37.812;-122.286;2023-01-24T02:57:43;16.40;50.90
72883;DHT22;61017;37.812;-122.286;2023-01-24T02:59:14;16.20;51.70
72883;DHT22;61017;37.812;-122.286;2023-01-24T03:00:47;16.10;52.20
72883;DHT22;61017;37.812;-122.286;2023-01-24T03:02:19;16.00;52.80
72883;DHT22;61017;37.812;-122.286;2023-01-24T03:03:50;15.90;53.00
72883;DHT22;61017;37.812;-122.286;2023-01-24T03:05:22;15.80;53.30
72883;DHT22;61017;37.812;-122.286;2023-01-24T03:06:54;15.80;53.70
72883;DHT22;61017;37.812;-122.286;2023-01-24T03:08:31;15.70;53.80
72883;DHT22;61017;37.812;-122.286;2023-01-24T03:10:03;15.60;54.00
72883;DHT22;61017;37.812;-122.286;2023-01-24T03:11:34;15.60;54.20
72883;DHT22;61017;37.812;-122.286;2023-01-24T03:13:06;15.60;54.30
72883;DHT22;61017;37.812;-122.286;2023-01-24T03:14:37;15.60;54.50
72883;DHT22;61017;37.812;-122.286;2023-01-24T03:16:10;15.50;54.90
72883;DHT22;61017;37.812;-122.286;2023-01-24T03:17:41;15.50;55.10
72883;DHT22;61017;37.812;-122.286;2023-01-24T03:19:13;15.50;55.10
72883;DHT22;61017;37.812;-122.286;2023-01-24T03:20:47;15.50;55.50
72883;DHT22;61017;37.812;-122.286;2023-01-24T03:22:19;15.40;55.70
72883;DHT22;61017;37.812;-122.286;2023-01-24T03:23:50;15.40;55.80
72883;DHT22;61017;37.812;-122.286;2023-01-24T03:25:22;15.40;56.10
72883;DHT22;61017;37.812;-122.286;2023-01-24T03:26:53;15.40;56.20
72883;DHT22;61017;37.812;-122.286;2023-01-24T03:28:25;15.40;56.40
72883;DHT22;61017;37.812;-122.286;2023-01-24T03:29:57;15.40;56.60
72883;DHT22;61017;37.812;-122.286;2023-01-24T03:31:29;15.30;56.70
72883;DHT22;61017;37.812;-122.286;2023-01-24T03:33:02;15.30;56.80
72883;DHT22;61017;37.812;-122.286;2023-01-24T03:34:33;15.30;57.10
72883;DHT22;61017;37.812;-122.286;2023-01-24T03:36:05;15.30;57.00
72883;DHT22;61017;37.812;-122.286;2023-01-24T03:37:37;15.30;57.10
72883;DHT22;61017;37.812;-122.286;2023-01-24T03:39:12;15.30;57.40
72883;DHT22;61017;37.812;-122.286;2023-01-24T03:40:44;15.20;57.40
72883;DHT22;61017;37.812;-122.286;2023-01-24T03:42:15;15.20;57.70
72883;DHT22;61017;37.812;-122.286;2023-01-24T03:43:47;15.20;57.80
72883;DHT22;61017;37.812;-122.286;2023-01-24T03:45:25;15.20;57.50
72883;DHT22;61017;37.812;-122.286;2023-01-24T03:46:56;15.20;57.70
72883;DHT22;61017;37.812;-122.286;2023-01-24T03:48:28;15.20;57.90
72883;DHT22;61017;37.812;-122.286;2023-01-24T03:50:00;15.20;57.70
72883;DHT22;61017;37.812;-122.286;2023-01-24T03:51:31;15.20;57.70
72883;DHT22;61017;37.812;-122.286;2023-01-24T03:53:05;15.20;57.90
72883;DHT22;61017;37.812;-122.286;2023-01-24T03:54:37;15.20;58.00
72883;DHT22;61017;37.812;-122.286;2023-01-24T03:56:08;15.20;58.40
72883;DHT22;61017;37.812;-122.286;2023-01-24T03:57:40;15.20;58.30
72883;DHT22;61017;37.812;-122.286;2023-01-24T03:59:12;15.20;58.50
72883;DHT22;61017;37.812;-122.286;2023-01-24T04:00:43;15.20;58.80
72883;DHT22;61017;37.812;-122.286;2023-01-24T04:02:15;15.10;58.70
72883;DHT22;61017;37.812;-122.286;2023-01-24T04:03:47;15.10;58.70
72883;DHT22;61017;37.812;-122.286;2023-01-24T04:05:19;15.10;58.80
72883;DHT22;61017;37.812;-122.286;2023-01-24T04:06:51;15.10;59.00
72883;DHT22;61017;37.812;-122.286;2023-01-24T04:08:22;15.10;59.10
72883;DHT22;61017;37.812;-122.286;2023-01-24T04:09:54;15.10;58.80
72883;DHT22;61017;37.812;-122.286;2023-01-24T04:11:26;15.10;59.00
72883;DHT22;61017;37.812;-122.286;2023-01-24T04:12:57;15.10;59.00
72883;DHT22;61017;37.812;-122.286;2023-01-24T04:14:29;15.10;59.00
72883;DHT22;61017;37.812;-122.286;2023-01-24T04:16:01;15.10;58.80
72883;DHT22;61017;37.812;-122.286;2023-01-24T04:17:32;15.10;58.60
72883;DHT22;61017;37.812;-122.286;2023-01-24T04:19:04;15.10;59.10
72883;DHT22;61017;37.812;-122.286;2023-01-24T04:20:36;15.10;59.10
72883;DHT22;61017;37.812;-122.286;2023-01-24T04:22:08;15.10;59.30
72883;DHT22;61017;37.812;-122.286;2023-01-24T04:23:40;15.10;59.30
72883;DHT22;61017;37.812;-122.286;2023-01-24T04:25:11;15.10;59.70
72883;DHT22;61017;37.812;-122.286;2023-01-24T04:26:43;15.00;59.80
72883;DHT22;61017;37.812;-122.286;2023-01-24T04:28:14;15.00;59.70
72883;DHT22;61017;37.812;-122.286;2023-01-24T04:29:46;15.00;59.50
72883;DHT22;61017;37.812;-122.286;2023-01-24T04:31:17;15.00;59.60
72883;DHT22;61017;37.812;-122.286;2023-01-24T04:32:49;15.00;60.00
72883;DHT22;61017;37.812;-122.286;2023-01-24T04:34:20;15.00;59.90
72883;DHT22;61017;37.812;-122.286;2023-01-24T04:35:55;15.00;59.80
72883;DHT22;61017;37.812;-122.286;2023-01-24T04:37:27;15.00;59.90
72883;DHT22;61017;37.812;-122.286;2023-01-24T04:38:58;15.00;60.00
72883;DHT22;61017;37.812;-122.286;2023-01-24T04:40:30;15.00;59.90
72883;DHT22;61017;37.812;-122.286;2023-01-24T04:42:01;15.00;60.40
72883;DHT22;61017;37.812;-122.286;2023-01-24T04:43:33;15.00;60.40
72883;DHT22;61017;37.812;-122.286;2023-01-24T04:45:05;15.00;60.40
72883;DHT22;61017;37.812;-122.286;2023-01-24T04:46:37;15.00;60.40
72883;DHT22;61017;37.812;-122.286;2023-01-24T04:48:09;15.00;60.60
72883;DHT22;61017;37.812;-122.286;2023-01-24T04:49:41;15.00;60.30
72883;DHT22;61017;37.812;-122.286;2023-01-24T04:51:12;15.00;60.10
72883;DHT22;61017;37.812;-122.286;2023-01-24T04:52:44;15.00;60.50
72883;DHT22;61017;37.812;-122.286;2023-01-24T04:54:16;15.00;60.70
72883;DHT22;61017;37.812;-122.286;2023-01-24T04:55:48;15.00;60.80
72883;DHT22;61017;37.812;-122.286;2023-01-24T04:57:19;15.00;60.90
72883;DHT22;61017;37.812;-122.286;2023-01-24T04:58:51;15.00;60.80
72883;DHT22;61017;37.812;-122.286;2023-01-24T05:00:23;15.00;60.90
72883;DHT22;61017;37.812;-122.286;2023-01-24T05:01:54;14.90;60.30
72883;DHT22;61017;37.812;-122.286;2023-01-24T05:03:26;14.90;60.40
72883;DHT22;61017;37.812;-122.286;2023-01-24T05:04:58;15.00;61.00
72883;DHT22;61017;37.812;-122.286;2023-01-24T05:06:31;14.90;60.60
72883;DHT22;61017;37.812;-122.286;2023-01-24T05:08:03;14.90;60.40
72883;DHT22;61017;37.812;-122.286;2023-01-24T05:09:34;14.90;60.40
72883;DHT22;61017;37.812;-122.286;2023-01-24T05:11:06;14.90;60.30
72883;DHT22;61017;37.812;-122.286;2023-01-24T05:12:37;14.90;60.30
72883;DHT22;61017;37.812;-122.286;2023-01-24T05:14:09;14.90;60.50
72883;DHT22;61017;37.812;-122.286;2023-01-24T05:15:48;14.90;60.80
72883;DHT22;61017;37.812;-122.286;2023-01-24T05:17:20;14.90;60.50
72883;DHT22;61017;37.812;-122.286;2023-01-24T05:18:52;14.90;60.70
72883;DHT22;61017;37.812;-122.286;2023-01-24T05:20:23;14.90;60.90
72883;DHT22;61017;37.812;-122.286;2023-01-24T05:21:55;14.90;61.00
72883;DHT22;61017;37.812;-122.286;2023-01-24T05:23:26;14.90;60.80
72883;DHT22;61017;37.812;-122.286;2023-01-24T05:24:58;14.90;60.70
72883;DHT22;61017;37.812;-122.286;2023-01-24T05:26:29;14.90;60.80
72883;DHT22;61017;37.812;-122.286;2023-01-24T05:28:01;14.90;61.00
72883;DHT22;61017;37.812;-122.286;2023-01-24T05:29:32;14.90;61.20
72883;DHT22;61017;37.812;-122.286;2023-01-24T05:31:05;14.90;61.10
72883;DHT22;61017;37.812;-122.286;2023-01-24T05:32:37;14.90;61.10
72883;DHT22;61017;37.812;-122.286;2023-01-24T05:34:08;14.90;60.70
72883;DHT22;61017;37.812;-122.286;2023-01-24T05:35:40;14.90;61.20
72883;DHT22;61017;37.812;-122.286;2023-01-24T05:37:11;14.90;61.10
72883;DHT22;61017;37.812;-122.286;2023-01-24T05:38:43;14.90;61.00
72883;DHT22;61017;37.812;-122.286;2023-01-24T05:40:16;14.90;61.30
72883;DHT22;61017;37.812;-122.286;2023-01-24T05:41:47;14.90;61.40
72883;DHT22;61017;37.812;-122.286;2023-01-24T05:43:19;14.90;61.10
72883;DHT22;61017;37.812;-122.286;2023-01-24T05:44:51;14.90;61.30
72883;DHT22;61017;37.812;-122.286;2023-01-24T05:46:23;14.90;61.00
72883;DHT22;61017;37.812;-122.286;2023-01-24T05:47:55;14.90;61.50
72883;DHT22;61017;37.812;-122.286;2023-01-24T05:49:27;14.90;61.10
72883;DHT22;61017;37.812;-122.286;2023-01-24T05:51:10;14.90;61.00
72883;DHT22;61017;37.812;-122.286;2023-01-24T05:52:42;14.90;61.50
72883;DHT22;61017;37.812;-122.286;2023-01-24T05:54:14;14.90;62.00
72883;DHT22;61017;37.812;-122.286;2023-01-24T05:55:45;15.00;60.30
72883;DHT22;61017;37.812;-122.286;2023-01-24T05:57:17;15.10;58.80
72883;DHT22;61017;37.812;-122.286;2023-01-24T05:58:49;15.30;57.80
72883;DHT22;61017;37.812;-122.286;2023-01-24T06:00:21;15.40;56.20
72883;DHT22;61017;37.812;-122.286;2023-01-24T06:01:52;15.70;55.20
72883;DHT22;61017;37.812;-122.286;2023-01-24T06:03:24;15.80;54.10
72883;DHT22;61017;37.812;-122.286;2023-01-24T06:04:55;15.80;54.80
72883;DHT22;61017;37.812;-122.286;2023-01-24T06:06:27;15.80;55.30
72883;DHT22;61017;37.812;-122.286;2023-01-24T06:07:59;15.90;54.10
72883;DHT22;61017;37.812;-122.286;2023-01-24T06:09:30;16.00;53.10
72883;DHT22;61017;37.812;-122.286;2023-01-24T06:11:09;16.20;52.50
72883;DHT22;61017;37.812;-122.286;2023-01-24T06:12:41;16.30;51.80
72883;DHT22;61017;37.812;-122.286;2023-01-24T06:14:12;16.30;51.10
72883;DHT22;61017;37.812;-122.286;2023-01-24T06:15:44;16.40;51.10
72883;DHT22;61017;37.812;-122.286;2023-01-24T06:17:15;16.30;51.80
72883;DHT22;61017;37.812;-122.286;2023-01-24T06:18:48;16.20;52.40
72883;DHT22;61017;37.812;-122.286;2023-01-24T06:20:20;16.30;51.60
72883;DHT22;61017;37.812;-122.286;2023-01-24T06:24:03;16.40;50.40
72883;DHT22;61017;37.812;-122.286;2023-01-24T06:25:34;16.50;50.00
72883;DHT22;61017;37.812;-122.286;2023-01-24T06:27:07;16.50;49.60
72883;DHT22;61017;37.812;-122.286;2023-01-24T06:28:40;16.50;50.50
72883;DHT22;61017;37.812;-122.286;2023-01-24T06:30:12;16.40;51.70
72883;DHT22;61017;37.812;-122.286;2023-01-24T06:34:31;16.50;50.10
72883;DHT22;61017;37.812;-122.286;2023-01-24T06:37:46;16.60;49.20
72883;DHT22;61017;37.812;-122.286;2023-01-24T06:39:18;16.70;49.00
72883;DHT22;61017;37.812;-122.286;2023-01-24T06:40:56;16.50;49.50
72883;DHT22;61017;37.812;-122.286;2023-01-24T06:42:28;16.50;50.60
72883;DHT22;61017;37.812;-122.286;2023-01-24T06:44:00;16.50;49.90
72883;DHT22;61017;37.812;-122.286;2023-01-24T06:45:32;16.60;49.40
72883;DHT22;61017;37.812;-122.286;2023-01-24T06:47:04;16.60;49.00
72883;DHT22;61017;37.812;-122.286;2023-01-24T06:48:35;16.70;48.70
72883;DHT22;61017;37.812;-122.286;2023-01-24T06:51:58;16.70;48.80
72883;DHT22;61017;37.812;-122.286;2023-01-24T06:53:29;16.60;50.80
72883;DHT22;61017;37.812;-122.286;2023-01-24T06:55:01;16.60;49.90
72883;DHT22;61017;37.812;-122.286;2023-01-24T06:56:32;16.60;49.40
72883;DHT22;61017;37.812;-122.286;2023-01-24T06:58:04;16.70;49.00
72883;DHT22;61017;37.812;-122.286;2023-01-24T06:59:35;16.70;48.60
72883;DHT22;61017;37.812;-122.286;2023-01-24T07:01:07;16.80;48.30
72883;DHT22;61017;37.812;-122.286;2023-01-24T07:02:39;16.80;48.10
72883;DHT22;61017;37.812;-122.286;2023-01-24T07:04:10;16.70;48.70
72883;DHT22;61017;37.812;-122.286;2023-01-24T07:05:42;16.60;50.20
72883;DHT22;61017;37.812;-122.286;2023-01-24T07:07:13;16.60;49.40
72883;DHT22;61017;37.812;-122.286;2023-01-24T07:08:45;16.70;49.10
72883;DHT22;61017;37.812;-122.286;2023-01-24T07:10:16;16.70;48.60
72883;DHT22;61017;37.812;-122.286;2023-01-24T07:11:48;16.80;48.40
72883;DHT22;61017;37.812;-122.286;2023-01-24T07:13:19;16.80;48.00
72883;DHT22;61017;37.812;-122.286;2023-01-24T07:14:51;16.80;48.10
72883;DHT22;61017;37.812;-122.286;2023-01-24T07:16:23;16.70;48.70
72883;DHT22;61017;37.812;-122.286;2023-01-24T07:17:54;16.60;49.70
72883;DHT22;61017;37.812;-122.286;2023-01-24T07:19:26;16.70;49.10
72883;DHT22;61017;37.812;-122.286;2023-01-24T07:20:58;16.70;48.80
72883;DHT22;61017;37.812;-122.286;2023-01-24T07:22:30;16.80;48.40
72883;DHT22;61017;37.812;-122.286;2023-01-24T07:24:01;16.80;48.10
72883;DHT22;61017;37.812;-122.286;2023-01-24T07:25:33;16.80;47.70
72883;DHT22;61017;37.812;-122.286;2023-01-24T07:27:05;16.80;48.40
72883;DHT22;61017;37.812;-122.286;2023-01-24T07:28:39;16.70;49.80
72883;DHT22;61017;37.812;-122.286;2023-01-24T07:30:12;16.70;49.20
72883;DHT22;61017;37.812;-122.286;2023-01-24T07:31:44;16.70;48.70
72883;DHT22;61017;37.812;-122.286;2023-01-24T07:33:16;16.80;48.30
72883;DHT22;61017;37.812;-122.286;2023-01-24T07:34:47;16.80;47.90
72883;DHT22;61017;37.812;-122.286;2023-01-24T07:36:19;16.90;47.70
72883;DHT22;61017;37.812;-122.286;2023-01-24T07:37:50;16.90;47.50
72883;DHT22;61017;37.812;-122.286;2023-01-24T07:39:22;16.80;47.90
72883;DHT22;61017;37.812;-122.286;2023-01-24T07:40:53;16.70;49.80
72883;DHT22;61017;37.812;-122.286;2023-01-24T07:42:25;16.70;49.00
72883;DHT22;61017;37.812;-122.286;2023-01-24T07:43:56;16.80;48.50
72883;DHT22;61017;37.812;-122.286;2023-01-24T07:45:28;16.80;48.10
72883;DHT22;61017;37.812;-122.286;2023-01-24T07:47:00;16.90;47.90
72883;DHT22;61017;37.812;-122.286;2023-01-24T07:48:31;16.90;48.20
72883;DHT22;61017;37.812;-122.286;2023-01-24T07:50:03;16.90;47.30
72883;DHT22;61017;37.812;-122.286;2023-01-24T07:51:35;16.80;47.90
72883;DHT22;61017;37.812;-122.286;2023-01-24T07:53:06;16.80;49.70
72883;DHT22;61017;37.812;-122.286;2023-01-24T07:54:38;16.80;48.80
72883;DHT22;61017;37.812;-122.286;2023-01-24T07:56:09;16.80;48.30
72883;DHT22;61017;37.812;-122.286;2023-01-24T07:57:41;16.90;48.00
72883;DHT22;61017;37.812;-122.286;2023-01-24T07:59:12;16.90;47.60
72883;DHT22;61017;37.812;-122.286;2023-01-24T08:00:44;17.00;47.40
72883;DHT22;61017;37.812;-122.286;2023-01-24T08:02:15;17.00;47.30
72883;DHT22;61017;37.812;-122.286;2023-01-24T08:03:47;16.80;48.00
72883;DHT22;61017;37.812;-122.286;2023-01-24T08:05:19;16.80;49.20
72883;DHT22;61017;37.812;-122.286;2023-01-24T08:06:50;16.80;48.50
72883;DHT22;61017;37.812;-122.286;2023-01-24T08:08:22;16.80;48.10
72883;DHT22;61017;37.812;-122.286;2023-01-24T08:09:53;16.90;47.70
72883;DHT22;61017;37.812;-122.286;2023-01-24T08:11:25;16.90;47.40
72883;DHT22;61017;37.812;-122.286;2023-01-24T08:12:56;17.00;47.20
72883;DHT22;61017;37.812;-122.286;2023-01-24T08:14:28;16.90;47.40
72883;DHT22;61017;37.812;-122.286;2023-01-24T08:16:00;16.80;48.90
72883;DHT22;61017;37.812;-122.286;2023-01-24T08:17:32;16.80;48.90
72883;DHT22;61017;37.812;-122.286;2023-01-24T08:19:04;16.80;48.20
72883;DHT22;61017;37.812;-122.286;2023-01-24T08:20:35;16.80;47.80
72883;DHT22;61017;37.812;-122.286;2023-01-24T08:22:07;16.90;47.60
72883;DHT22;61017;37.812;-122.286;2023-01-24T08:23:38;17.00;47.30
72883;DHT22;61017;37.812;-122.286;2023-01-24T08:25:10;17.00;47.00
72883;DHT22;61017;37.812;-122.286;2023-01-24T08:26:41;16.90;47.50
72883;DHT22;61017;37.812;-122.286;2023-01-24T08:28:13;16.80;49.30
72883;DHT22;61017;37.812;-122.286;2023-01-24T08:29:45;16.70;48.50
72883;DHT22;61017;37.812;-122.286;2023-01-24T08:31:16;16.80;48.10
72883;DHT22;61017;37.812;-122.286;2023-01-24T08:32:48;16.80;47.60
72883;DHT22;61017;37.812;-122.286;2023-01-24T08:34:21;16.90;47.40
72883;DHT22;61017;37.812;-122.286;2023-01-24T08:35:52;16.90;47.00
72883;DHT22;61017;37.812;-122.286;2023-01-24T08:37:24;16.90;46.80
72883;DHT22;61017;37.812;-122.286;2023-01-24T08:38:55;16.90;47.30
72883;DHT22;61017;37.812;-122.286;2023-01-24T08:40:27;16.80;49.10
72883;DHT22;61017;37.812;-122.286;2023-01-24T08:41:59;16.80;48.20
72883;DHT22;61017;37.812;-122.286;2023-01-24T08:43:32;16.80;47.70
72883;DHT22;61017;37.812;-122.286;2023-01-24T08:45:03;16.80;47.30
72883;DHT22;61017;37.812;-122.286;2023-01-24T08:46:35;16.90;46.90
72883;DHT22;61017;37.812;-122.286;2023-01-24T08:48:06;17.00;46.70
72883;DHT22;61017;37.812;-122.286;2023-01-24T08:49:38;17.00;46.50
72883;DHT22;61017;37.812;-122.286;2023-01-24T08:51:10;16.80;47.10
72883;DHT22;61017;37.812;-122.286;2023-01-24T08:52:41;16.80;48.60
72883;DHT22;61017;37.812;-122.286;2023-01-24T08:54:13;16.80;48.00
72883;DHT22;61017;37.812;-122.286;2023-01-24T08:55:47;16.70;48.60
72883;DHT22;61017;37.812;-122.286;2023-01-24T08:57:18;16.50;50.00
72883;DHT22;61017;37.812;-122.286;2023-01-24T08:58:50;16.30;50.90
72883;DHT22;61017;37.812;-122.286;2023-01-24T09:00:22;16.10;51.20
72883;DHT22;61017;37.812;-122.286;2023-01-24T09:01:53;15.90;51.60
72883;DHT22;61017;37.812;-122.286;2023-01-24T09:03:25;15.80;52.10
72883;DHT22;61017;37.812;-122.286;2023-01-24T09:04:56;15.70;52.30
72883;DHT22;61017;37.812;-122.286;2023-01-24T09:06:28;15.70;52.80
72883;DHT22;61017;37.812;-122.286;2023-01-24T09:08:00;15.60;53.00
72883;DHT22;61017;37.812;-122.286;2023-01-24T09:09:31;15.60;53.00
72883;DHT22;61017;37.812;-122.286;2023-01-24T09:11:03;15.50;52.90
72883;DHT22;61017;37.812;-122.286;2023-01-24T09:12:34;15.50;53.20
72883;DHT22;61017;37.812;-122.286;2023-01-24T09:14:06;15.50;52.80
72883;DHT22;61017;37.812;-122.286;2023-01-24T09:15:37;15.50;52.70
72883;DHT22;61017;37.812;-122.286;2023-01-24T09:17:09;15.40;52.20
72883;DHT22;61017;37.812;-122.286;2023-01-24T09:18:41;15.40;52.00
72883;DHT22;61017;37.812;-122.286;2023-01-24T09:20:12;15.40;51.80
72883;DHT22;61017;37.812;-122.286;2023-01-24T09:21:44;15.40;51.90
72883;DHT22;61017;37.812;-122.286;2023-01-24T09:23:16;15.40;51.60
72883;DHT22;61017;37.812;-122.286;2023-01-24T09:24:47;15.30;51.90
72883;DHT22;61017;37.812;-122.286;2023-01-24T09:26:19;15.30;51.90
72883;DHT22;61017;37.812;-122.286;2023-01-24T09:27:55;15.30;51.70
72883;DHT22;61017;37.812;-122.286;2023-01-24T09:29:26;15.20;51.90